createdAt,value
2018-04-13T00:01:34.434Z,40.27
2018-04-13T00:04:02.017Z,33.97
2018-04-13T00:06:29.556Z,39.83
2018-04-13T00:08:57.128Z,38.07
2018-04-13T00:11:24.692Z,37.03
2018-04-13T00:13:52.253Z,32.43
2018-04-13T00:16:19.803Z,34.10
2018-04-13T00:18:47.370Z,30.47
2018-04-13T00:21:14.913Z,36.37
2018-04-13T00:23:43.238Z,37.67
2018-04-13T00:26:10.768Z,38.93
2018-04-13T00:28:38.323Z,36.07
2018-04-13T00:31:05.880Z,31.10
2018-04-13T00:33:33.425Z,35.43
2018-04-13T00:36:01.811Z,33.60
2018-04-13T00:38:30.107Z,31.00
2018-04-13T00:40:57.678Z,36.13
2018-04-13T00:43:25.224Z,33.97
2018-04-13T00:45:52.783Z,35.07
2018-04-13T00:48:20.319Z,38.07
2018-04-13T00:50:48.651Z,39.10
2018-04-13T00:53:28.167Z,40.67
2018-04-13T00:55:55.719Z,37.53
2018-04-13T00:58:23.257Z,33.80
2018-04-13T01:00:51.587Z,38.13
2018-04-13T01:03:19.237Z,37.73
2018-04-13T01:05:46.806Z,34.03
2018-04-13T01:08:14.345Z,35.10
2018-04-13T01:10:41.921Z,36.37
2018-04-13T01:13:09.485Z,41.50
2018-04-13T01:15:37.058Z,33.90
2018-04-13T01:18:04.609Z,33.40
2018-04-13T01:20:32.177Z,32.97
2018-04-13T01:23:00.482Z,31.70
2018-04-13T01:25:28.056Z,38.63
2018-04-13T01:27:56.351Z,32.33
2018-04-13T01:30:23.939Z,34.67
2018-04-13T01:32:51.482Z,31.60
2018-04-13T01:35:19.048Z,33.57
2018-04-13T01:37:47.421Z,38.20
2018-04-13T01:40:15.007Z,31.70
2018-04-13T01:42:42.570Z,35.33
2018-04-13T01:45:10.167Z,35.87
2018-04-13T01:47:37.770Z,35.53
2018-04-13T01:50:05.322Z,34.07
2018-04-13T01:52:32.894Z,34.33
2018-04-13T01:55:00.435Z,34.20
2018-04-13T01:57:28.773Z,34.17
2018-04-13T01:59:56.326Z,34.00
2018-04-13T02:02:23.893Z,33.50
2018-04-13T02:04:52.396Z,37.97
2018-04-13T02:07:19.963Z,32.47
2018-04-13T02:09:48.285Z,35.17
2018-04-13T02:12:15.854Z,35.63
2018-04-13T02:14:43.403Z,33.10
2018-04-13T02:17:10.969Z,35.83
2018-04-13T02:19:38.504Z,36.27
2018-04-13T02:22:06.087Z,33.30
2018-04-13T02:24:33.648Z,29.87
2018-04-13T02:27:01.308Z,33.47
2018-04-13T02:29:28.850Z,37.17
2018-04-13T02:31:56.413Z,40.30
2018-04-13T02:34:24.097Z,36.13
2018-04-13T02:36:51.532Z,35.10
2018-04-13T02:39:19.081Z,36.63
2018-04-13T02:41:47.404Z,33.50
2018-04-13T02:44:14.950Z,36.30
2018-04-13T02:46:42.540Z,31.73
2018-04-13T02:49:10.125Z,34.33
2018-04-13T02:51:38.461Z,34.43
2018-04-13T02:54:06.096Z,32.40
2018-04-13T02:56:33.676Z,38.27
2018-04-13T02:59:01.252Z,34.40
2018-04-13T03:01:29.576Z,37.63
2018-04-13T03:03:58.900Z,36.27
2018-04-13T03:06:26.459Z,36.57
2018-04-13T03:08:54.030Z,32.67
2018-04-13T03:11:21.582Z,40.03
2018-04-13T03:13:49.140Z,34.40
2018-04-13T03:16:16.685Z,36.50
2018-04-13T03:18:44.259Z,37.00
2018-04-13T03:21:11.809Z,32.60
2018-04-13T03:23:39.361Z,31.20
2018-04-13T03:26:07.695Z,35.27
2018-04-13T03:28:35.261Z,35.77
2018-04-13T03:31:02.842Z,32.83
2018-04-13T03:33:30.399Z,35.47
2018-04-13T03:35:57.949Z,37.87
2018-04-13T03:38:25.503Z,32.97
2018-04-13T03:40:53.051Z,34.43
2018-04-13T03:43:20.612Z,38.40
2018-04-13T03:45:48.160Z,33.10
2018-04-13T03:48:15.751Z,34.53
2018-04-13T03:50:43.315Z,43.43
2018-04-13T03:53:10.899Z,31.60
2018-04-13T03:55:39.213Z,36.60
2018-04-13T03:58:06.796Z,36.77
2018-04-13T04:00:34.357Z,31.47
2018-04-13T04:03:01.931Z,35.07
2018-04-13T04:05:29.486Z,34.97
2018-04-13T04:07:57.041Z,37.20
2018-04-13T04:10:24.589Z,35.50
2018-04-13T04:12:52.196Z,36.97
2018-04-13T04:15:20.504Z,36.10
2018-04-13T04:17:48.052Z,36.33
2018-04-13T04:20:27.615Z,40.73
2018-04-13T04:23:07.263Z,42.70
2018-04-13T04:25:46.689Z,36.43
2018-04-13T04:28:14.316Z,30.87
2018-04-13T04:30:41.894Z,33.40
2018-04-13T04:33:09.435Z,33.67
2018-04-13T04:35:37.773Z,32.07
2018-04-13T04:38:05.332Z,36.03
2018-04-13T04:40:32.920Z,34.67
2018-04-13T04:43:00.475Z,34.90
2018-04-13T04:45:28.033Z,35.57
2018-04-13T04:47:55.587Z,41.00
2018-04-13T04:50:23.146Z,33.63
2018-04-13T04:52:50.703Z,32.13
2018-04-13T04:55:18.265Z,36.03
2018-04-13T04:57:45.806Z,37.40
2018-04-13T05:00:13.395Z,34.23
2018-04-13T05:02:40.946Z,34.20
2018-04-13T05:05:08.499Z,31.53
2018-04-13T05:07:36.033Z,40.07
2018-04-13T05:10:03.594Z,34.40
2018-04-13T05:12:31.137Z,30.37
2018-04-13T05:14:58.823Z,29.00
2018-04-13T05:17:26.359Z,36.50
2018-04-13T05:19:54.694Z,36.13
2018-04-13T05:22:22.289Z,33.87
2018-04-13T05:24:50.607Z,34.53
2018-04-13T05:27:18.181Z,36.57
2018-04-13T05:29:45.753Z,33.23
2018-04-13T05:32:13.317Z,30.50
2018-04-13T05:34:40.876Z,30.13
2018-04-13T05:37:08.445Z,33.30
2018-04-13T05:39:35.994Z,32.93
2018-04-13T05:42:03.584Z,31.43
2018-04-13T05:44:31.882Z,35.87
2018-04-13T05:46:59.461Z,36.03
2018-04-13T05:49:27.006Z,27.70
2018-04-13T05:51:54.564Z,27.27
2018-04-13T05:54:22.107Z,28.40
2018-04-13T05:56:50.463Z,25.00
2018-04-13T05:59:18.014Z,39.67
2018-04-13T06:01:45.590Z,26.67
2018-04-13T06:04:13.132Z,31.47
2018-04-13T06:06:40.693Z,25.70
2018-04-13T06:09:08.236Z,29.97
2018-04-13T06:11:35.803Z,22.73
2018-04-13T06:14:03.356Z,36.77
2018-04-13T06:16:30.947Z,25.00
2018-04-13T06:18:58.492Z,32.00
2018-04-13T06:21:26.050Z,30.43
2018-04-13T06:23:53.598Z,28.40
2018-04-13T06:26:21.167Z,27.13
2018-04-13T06:28:48.721Z,25.60
2018-04-13T06:31:16.288Z,28.77
2018-04-13T06:33:43.861Z,29.27
2018-04-13T06:36:11.457Z,35.70
2018-04-13T06:38:39.873Z,25.23
2018-04-13T06:41:07.410Z,23.80
2018-04-13T06:43:34.970Z,24.83
2018-04-13T06:46:02.549Z,27.83
2018-04-13T06:48:30.121Z,32.53
2018-04-13T06:50:57.669Z,25.03
2018-04-13T06:53:25.236Z,24.17
2018-04-13T06:55:52.767Z,28.87
2018-04-13T06:58:20.320Z,30.13
2018-04-13T07:00:48.617Z,28.93
2018-04-13T07:03:16.192Z,37.10
2018-04-13T07:05:43.735Z,28.27
2018-04-13T07:08:11.316Z,30.63
2018-04-13T07:10:38.854Z,32.20
2018-04-13T07:13:06.430Z,32.57
2018-04-13T07:15:33.971Z,32.77
2018-04-13T07:18:01.540Z,27.00
2018-04-13T07:20:29.107Z,37.50
2018-04-13T07:22:56.716Z,26.03
2018-04-13T07:25:24.285Z,34.60
2018-04-13T07:27:52.617Z,30.67
2018-04-13T07:30:20.168Z,30.13
2018-04-13T07:32:48.249Z,30.53
2018-04-13T07:35:15.315Z,32.23
2018-04-13T07:37:42.915Z,32.87
2018-04-13T07:40:11.333Z,40.63
2018-04-13T07:42:38.909Z,35.50
2018-04-13T07:45:06.462Z,33.07
2018-04-13T07:47:34.025Z,31.63
2018-04-13T07:50:01.583Z,36.67
2018-04-13T07:52:29.152Z,35.53
2018-04-13T07:54:56.789Z,38.77
2018-04-13T07:57:24.331Z,37.40
2018-04-13T07:59:52.657Z,40.17
2018-04-13T08:02:20.200Z,45.50
2018-04-13T08:04:47.759Z,37.57
2018-04-13T08:07:15.301Z,40.63
2018-04-13T08:09:42.874Z,48.47
2018-04-13T08:12:10.437Z,44.67
2018-04-13T08:14:38.012Z,43.77
2018-04-13T08:17:05.566Z,40.43
2018-04-13T08:19:33.230Z,37.17
2018-04-13T08:22:00.778Z,37.73
2018-04-13T08:24:28.362Z,33.33
2018-04-13T08:26:55.920Z,36.97
2018-04-13T08:29:23.495Z,40.43
2018-04-13T08:31:51.054Z,33.70
2018-04-13T08:34:19.394Z,42.13
2018-04-13T08:36:46.954Z,33.10
2018-04-13T08:39:14.524Z,41.47
2018-04-13T08:41:42.072Z,36.83
2018-04-13T08:44:09.701Z,39.70
2018-04-13T08:46:37.230Z,37.07
2018-04-13T08:49:04.963Z,40.40
2018-04-13T08:51:32.460Z,45.07
2018-04-13T08:54:00.048Z,41.90
2018-04-13T08:56:27.588Z,44.90
2018-04-13T08:58:55.152Z,42.57
2018-04-13T09:01:22.724Z,37.03
2018-04-13T09:03:50.270Z,44.17
2018-04-13T09:06:17.796Z,38.23
2018-04-13T09:08:45.373Z,39.17
2018-04-13T09:11:12.947Z,36.83
2018-04-13T09:13:40.494Z,36.83
2018-04-13T09:16:08.060Z,41.63
2018-04-13T09:18:36.369Z,38.60
2018-04-13T09:21:04.796Z,39.83
2018-04-13T09:23:32.357Z,38.40
2018-04-13T09:25:59.921Z,43.50
2018-04-13T09:28:27.464Z,46.20
2018-04-13T09:30:55.020Z,40.60
2018-04-13T09:33:22.572Z,40.60
2018-04-13T09:35:50.929Z,43.63
2018-04-13T09:38:19.254Z,42.73
2018-04-13T09:40:46.829Z,47.97
2018-04-13T10:53:08.494Z,44.17
2018-04-13T10:55:36.069Z,39.37
2018-04-13T10:58:03.640Z,40.93
2018-04-13T11:00:31.175Z,37.63
2018-04-13T11:02:59.517Z,36.60
2018-04-13T11:05:27.074Z,37.97
2018-04-13T11:07:54.688Z,42.43
2018-04-13T11:10:22.278Z,44.33
2018-04-13T11:12:49.822Z,41.47
2018-04-13T11:15:17.361Z,37.30
2018-04-13T11:17:45.715Z,35.00
2018-04-13T11:20:13.267Z,33.03
2018-04-13T11:22:40.839Z,34.57
2018-04-13T11:25:08.402Z,32.27
2018-04-13T11:27:36.719Z,24.67
2018-04-13T11:30:04.267Z,33.97
2018-04-13T11:32:31.825Z,34.07
2018-04-13T11:34:59.381Z,33.50
2018-04-13T11:37:26.963Z,24.93
2018-04-13T11:39:54.505Z,31.80
2018-04-13T11:42:22.079Z,29.93
2018-04-13T11:44:49.640Z,30.23
2018-04-13T11:47:17.225Z,20.70
2018-04-13T11:49:44.790Z,25.37
2018-04-13T11:52:12.350Z,19.37
2018-04-13T11:54:39.890Z,20.10
2018-04-13T11:57:07.553Z,19.27
2018-04-13T11:59:35.094Z,18.47
2018-04-13T12:02:02.633Z,20.10
2018-04-13T12:04:30.965Z,16.87
2018-04-13T12:06:58.525Z,15.23
2018-04-13T12:09:26.087Z,24.37
2018-04-13T12:11:53.641Z,16.17
2018-04-13T12:14:21.201Z,13.77
2018-04-13T12:16:48.813Z,14.60
2018-04-13T12:19:17.147Z,17.10
2018-04-13T12:21:44.690Z,11.33
2018-04-13T12:24:12.260Z,18.20
2018-04-13T12:26:39.820Z,10.80
2018-04-13T12:29:07.374Z,12.60
2018-04-13T12:31:34.913Z,14.47
2018-04-13T12:34:02.508Z,10.77
2018-04-13T12:36:30.073Z,12.33
2018-04-13T12:38:57.636Z,14.70
2018-04-13T12:41:25.176Z,12.23
2018-04-13T12:43:52.732Z,15.87
2018-04-13T12:46:20.280Z,15.70
2018-04-13T12:48:47.854Z,11.97
2018-04-13T12:51:15.402Z,13.40
2018-04-13T12:53:43.027Z,15.50
2018-04-13T12:56:10.546Z,13.07
2018-04-13T12:58:38.108Z,14.00
2018-04-13T13:01:05.635Z,13.83
2018-04-13T13:03:33.195Z,9.53
2018-04-13T13:06:00.747Z,17.07
2018-04-13T13:08:29.079Z,10.77
2018-04-13T13:10:57.602Z,11.13
2018-04-13T13:13:25.178Z,15.93
2018-04-13T13:15:52.731Z,14.90
2018-04-13T13:18:20.320Z,7.90
2018-04-13T13:20:47.854Z,12.43
2018-04-13T13:23:15.545Z,14.10
2018-04-13T13:25:43.104Z,14.95
2018-04-13T13:28:10.647Z,13.80
2018-04-13T13:30:38.227Z,11.63
2018-04-13T13:33:05.807Z,10.40
2018-04-13T13:35:33.378Z,11.93
2018-04-13T13:38:00.924Z,17.50
2018-04-13T13:40:29.486Z,11.40
2018-04-13T13:42:57.019Z,15.20
2018-04-13T13:45:25.413Z,13.00
2018-04-13T13:47:52.952Z,12.17
2018-04-13T13:50:21.272Z,8.53
2018-04-13T13:52:48.807Z,12.80
2018-04-13T13:55:16.382Z,13.40
2018-04-13T13:57:43.922Z,11.43
2018-04-13T14:00:11.485Z,17.30
2018-04-13T14:02:39.019Z,14.73
2018-04-13T14:05:06.598Z,14.27
2018-04-13T14:07:34.891Z,9.07
2018-04-13T14:10:03.392Z,12.93
2018-04-13T14:12:30.947Z,6.43
2018-04-13T14:14:58.576Z,14.70
2018-04-13T14:17:26.073Z,12.67
2018-04-13T14:19:53.638Z,14.13
2018-04-13T14:22:21.177Z,11.70
2018-04-13T14:24:49.064Z,11.73
2018-04-13T14:27:16.608Z,7.33
2018-04-13T14:29:44.176Z,11.47
2018-04-13T14:32:11.772Z,8.50
2018-04-13T14:34:39.394Z,14.53
2018-04-13T14:37:06.923Z,6.40
2018-04-13T14:39:35.322Z,13.13
2018-04-13T14:42:02.954Z,9.47
2018-04-13T14:44:31.265Z,19.77
2018-04-13T14:46:58.827Z,7.33
2018-04-13T14:49:26.373Z,8.33
2018-04-13T14:51:53.940Z,11.03
2018-04-13T14:54:22.390Z,13.80
2018-04-13T14:56:49.956Z,9.63
2018-04-13T14:59:18.271Z,10.25
2018-04-13T15:01:45.847Z,7.57
2018-04-13T15:04:13.383Z,8.60
2018-04-13T15:06:41.066Z,11.52
2018-04-13T15:09:08.604Z,7.32
2018-04-13T15:11:36.171Z,13.65
2018-04-13T15:14:03.720Z,10.57
2018-04-13T15:16:31.304Z,11.50
2018-04-13T15:18:58.840Z,10.53
2018-04-13T15:21:26.398Z,9.07
2018-04-13T15:23:53.943Z,9.53
2018-04-13T15:26:22.273Z,10.50
2018-04-13T15:28:49.826Z,10.43
2018-04-13T15:31:17.397Z,12.30
2018-04-13T15:33:44.951Z,10.90
2018-04-13T15:36:12.512Z,8.47
2018-04-13T15:38:40.068Z,8.97
2018-04-13T15:41:07.628Z,6.23
2018-04-13T15:43:35.212Z,11.95
2018-04-13T15:46:02.780Z,15.70
2018-04-13T15:48:30.330Z,10.83
2018-04-13T15:50:57.884Z,12.77
2018-04-13T15:53:25.422Z,8.85
2018-04-13T15:55:52.991Z,8.93
2018-04-13T15:58:20.529Z,10.20
2018-04-13T16:00:48.073Z,14.27
2018-04-13T16:03:16.408Z,10.77
2018-04-13T16:05:43.967Z,12.73
2018-04-13T16:08:11.538Z,14.13
2018-04-13T16:10:39.083Z,10.00
2018-04-13T16:13:06.663Z,8.47
2018-04-13T16:15:34.229Z,13.57
2018-04-13T16:18:01.791Z,11.23
2018-04-13T16:20:29.332Z,13.43
2018-04-13T16:22:56.976Z,12.67
2018-04-13T16:25:24.521Z,13.13
2018-04-13T16:27:52.195Z,16.83
2018-04-13T16:30:19.754Z,12.00
2018-04-13T16:32:47.364Z,11.63
2018-04-13T16:35:14.909Z,9.47
2018-04-13T16:37:42.469Z,9.43
2018-04-13T16:40:10.128Z,9.57
2018-04-13T16:42:37.707Z,11.60
2018-04-13T16:45:05.254Z,18.42
2018-04-13T16:47:32.806Z,9.00
2018-04-13T16:50:00.339Z,16.77
2018-04-13T16:52:28.098Z,10.17
2018-04-13T16:54:55.671Z,10.33
2018-04-13T16:57:23.236Z,8.10
2018-04-13T16:59:50.776Z,6.63
2018-04-13T17:02:18.350Z,9.10
2018-04-13T17:04:45.911Z,5.40
2018-04-13T17:07:13.528Z,11.57
2018-04-13T17:09:41.849Z,7.20
2018-04-13T17:12:09.410Z,10.13
2018-04-13T17:14:36.946Z,6.03
2018-04-13T17:17:04.487Z,7.53
2018-04-13T17:19:32.817Z,12.67
2018-04-13T17:22:00.354Z,6.43
2018-04-13T17:24:27.934Z,11.73
2018-04-13T17:26:55.488Z,7.73
2018-04-13T17:29:23.093Z,13.37
2018-04-13T17:31:50.596Z,10.30
2018-04-13T17:34:18.167Z,7.33
2018-04-13T17:36:45.731Z,16.03
2018-04-13T17:39:13.295Z,6.63
2018-04-13T17:41:40.830Z,7.20
2018-04-13T17:44:08.415Z,8.17
2018-04-13T17:46:35.993Z,14.10
2018-04-13T17:49:03.576Z,12.13
2018-04-13T17:51:31.139Z,12.17
2018-04-13T17:53:59.483Z,8.30
2018-04-13T17:56:27.110Z,19.53
2018-04-13T17:58:54.666Z,9.60
2018-04-13T18:01:23.007Z,10.40
2018-04-13T18:03:50.576Z,7.60
2018-04-13T18:06:18.134Z,10.10
2018-04-13T18:08:45.704Z,2.93
2018-04-13T18:11:13.254Z,9.77
2018-04-13T18:13:40.803Z,4.03
2018-04-13T18:16:08.337Z,3.37
2018-04-13T18:18:35.901Z,3.27
2018-04-13T18:21:03.477Z,3.63
2018-04-13T18:23:31.018Z,3.13
2018-04-13T18:25:58.687Z,7.50
2018-04-13T18:28:26.238Z,3.50
2018-04-13T18:30:53.831Z,8.83
2018-04-13T18:33:21.446Z,10.03
2018-04-13T18:35:48.991Z,11.50
2018-04-13T18:38:17.296Z,5.40
2018-04-13T18:40:44.867Z,4.47
2018-04-13T18:43:12.435Z,4.40
2018-04-13T18:45:39.995Z,10.17
2018-04-13T18:48:07.541Z,4.43
2018-04-13T18:50:35.091Z,5.40
2018-04-13T18:53:02.643Z,7.97
2018-04-13T18:55:31.114Z,9.07
2018-04-13T18:57:59.460Z,3.60
2018-04-13T19:00:27.009Z,4.30
2018-04-13T19:02:54.542Z,5.33
2018-04-13T19:05:22.101Z,6.83
2018-04-13T19:07:49.662Z,4.07
2018-04-13T19:10:17.207Z,8.40
2018-04-13T19:12:44.753Z,7.13
2018-04-13T19:15:13.094Z,8.47
2018-04-13T19:17:40.639Z,7.93
2018-04-13T19:20:08.215Z,3.80
2018-04-13T19:22:35.960Z,8.50
2018-04-13T19:25:03.530Z,5.67
2018-04-13T19:27:31.069Z,7.13
2018-04-13T19:29:58.618Z,7.13
2018-04-13T19:32:26.191Z,5.33
2018-04-13T19:34:53.853Z,11.43
2018-04-13T19:37:21.397Z,12.90
2018-04-13T19:39:48.981Z,11.57
2018-04-13T19:42:16.520Z,5.67
2018-04-13T19:44:44.080Z,6.73
2018-04-13T19:47:11.638Z,10.00
2018-04-13T19:49:39.192Z,7.93
2018-04-13T19:52:07.521Z,9.63
2018-04-13T19:54:35.060Z,8.37
2018-04-13T19:57:02.620Z,10.93
2018-04-13T19:59:30.142Z,8.57
2018-04-13T20:01:58.466Z,11.07
2018-04-13T20:04:26.021Z,11.57
2018-04-13T20:06:53.577Z,12.23
2018-04-13T20:09:21.135Z,6.67
2018-04-13T20:11:48.721Z,10.10
2018-04-13T20:14:25.233Z,9.07
2018-04-13T20:16:53.573Z,10.47
2018-04-13T20:19:21.116Z,13.17
2018-04-13T20:21:48.717Z,7.97
2018-04-13T20:24:16.263Z,14.13
2018-04-13T20:26:43.820Z,9.10
2018-04-13T20:29:11.358Z,12.40
2018-04-13T20:31:38.969Z,11.07
2018-04-13T20:34:07.283Z,8.63
2018-04-13T20:36:34.848Z,6.73
2018-04-13T20:39:02.363Z,6.97
2018-04-13T20:41:30.697Z,10.70
2018-04-13T20:43:58.270Z,9.63
2018-04-13T20:46:25.843Z,8.13
2018-04-13T20:48:53.400Z,10.43
2018-04-13T20:51:20.966Z,5.03
2018-04-13T20:53:48.512Z,10.37
2018-04-13T20:56:16.084Z,6.20
2018-04-13T20:58:43.643Z,10.00
2018-04-13T21:01:11.192Z,7.90
2018-04-13T21:03:38.783Z,12.63
2018-04-13T21:06:06.309Z,7.23
2018-04-13T21:08:33.872Z,11.27
2018-04-13T21:11:01.405Z,9.70
2018-04-13T21:13:28.963Z,6.17
2018-04-13T21:15:56.523Z,12.57
2018-04-13T21:18:25.053Z,12.20
2018-04-13T21:20:52.605Z,10.57
2018-04-13T21:23:20.165Z,12.13
2018-04-13T21:25:47.755Z,18.77
2018-04-13T21:28:16.102Z,14.90
2018-04-13T21:30:43.636Z,13.60
2018-04-13T21:33:11.214Z,12.37
2018-04-13T21:35:38.774Z,13.13
2018-04-13T21:38:06.346Z,15.37
2018-04-13T21:40:33.903Z,11.03
2018-04-13T21:43:01.485Z,11.87
2018-04-13T21:45:29.043Z,10.60
2018-04-13T21:47:56.601Z,11.07
2018-04-13T21:50:24.137Z,14.23
2018-04-13T21:52:51.697Z,10.10
2018-04-13T21:55:19.245Z,12.63
2018-04-13T21:57:46.856Z,11.67
2018-04-13T22:00:14.397Z,11.03
2018-04-13T22:02:41.962Z,11.57
2018-04-13T22:05:09.508Z,11.80
2018-04-13T22:07:37.066Z,9.20
2018-04-13T22:10:04.608Z,16.20
2018-04-13T22:12:44.030Z,13.70
2018-04-13T22:15:11.571Z,9.07
2018-04-13T22:17:39.895Z,10.03
2018-04-13T22:20:07.452Z,8.97
2018-04-13T22:22:34.972Z,9.23
2018-04-13T22:25:03.289Z,14.27
2018-04-13T22:27:30.856Z,12.70
2018-04-13T22:29:58.409Z,9.00
2018-04-13T22:32:25.953Z,10.80
2018-04-13T22:34:53.509Z,9.17
2018-04-13T22:37:21.677Z,8.87
2018-04-13T22:39:49.234Z,4.93
2018-04-13T22:42:17.519Z,6.00
2018-04-13T22:44:45.072Z,3.70
2018-04-13T22:47:12.637Z,3.90
2018-04-13T22:49:40.192Z,5.97
2018-04-13T22:52:07.743Z,3.23
2018-04-13T22:54:36.138Z,3.03
2018-04-13T22:57:03.695Z,3.83
2018-04-13T22:59:31.304Z,8.37
2018-04-13T23:01:58.862Z,4.03
2018-04-13T23:04:26.439Z,3.60
2018-04-13T23:06:53.989Z,7.00
2018-04-13T23:09:21.604Z,6.67
2018-04-13T23:11:49.123Z,7.17
2018-04-13T23:14:16.701Z,7.07
2018-04-13T23:16:45.017Z,9.80
2018-04-13T23:19:12.584Z,14.70
2018-04-13T23:21:40.122Z,11.63
2018-04-13T23:24:07.727Z,9.40
2018-04-13T23:26:35.271Z,6.83
2018-04-13T23:29:02.834Z,6.50
2018-04-13T23:31:30.409Z,4.70
2018-04-13T23:33:57.931Z,3.93
2018-04-13T23:36:25.476Z,4.60
2018-04-13T23:38:53.767Z,4.00
2018-04-13T23:41:21.390Z,2.97
2018-04-13T23:43:49.009Z,2.13
2018-04-13T23:46:16.567Z,1.30
2018-04-13T23:48:44.189Z,1.20
2018-04-13T23:51:12.577Z,1.07
2018-04-13T23:53:40.142Z,1.57
2018-04-13T23:56:07.703Z,2.00
2018-04-13T23:58:36.027Z,1.57
